Temp: 4.6°C   Baro: 1017.2mb
  Wind: 0.0mph   Dir: NNW (342°)
  Rain: 0.0mm (0.0mm/hr)
  Solar: 0W/m2  Hum: 83%

Historic data

Bath Spa Weather Station Historical Data
Daily Summary for October 1, 2021 Units:  Metric    English   Both
Daily Weekly Monthly Yearly Custom
  High: Low: Average:
Temperature: 15.6 °C 8.4 °C 13.3 °C
Dew Point: 14.8 °C 6.4 °C 10.6 °C
Humidity: 92% 62.2% 82%
Wind Speed: 20.6km/h 0km/h 7.2km/h
Wind Gust: 35.4km/h - -
Wind- - West
Pressure: 1012.8 hPa 1007.7 hPa -
Precipitation: 3.3 mm    
Historical Graphs
 
 
Tabular Data for October 1, 2021
Time Temperature Dew Point Pressure Wind Wind Speed Wind Gust Humidity Rainfall Rate (Hourly) solar
00:04 15.4 °C 14.4 °C 1012.1 hPa SW 0.8 km/h 6.4 km/h 91% 0 mm 0 W/m2
00:09 15.4 °C 14.4 °C 1012.1 hPa SW 1.3 km/h 6.4 km/h 91% 0 mm 0 W/m2
00:14 15.4 °C 14.4 °C 1012.1 hPa SW 1.9 km/h 9.7 km/h 91% 0 mm 0 W/m2
00:19 15.4 °C 14.4 °C 1012.1 hPa SW 1.3 km/h 6.4 km/h 91% 0 mm 0 W/m2
00:24 15.4 °C 14.4 °C 1012.1 hPa SW 1.6 km/h 9.7 km/h 91% 0 mm 0 W/m2
00:29 15.6 °C 14.6 °C 1011.7 hPa SW 6.8 km/h 12.9 km/h 91.5% 0 mm 0 W/m2
00:34 15.6 °C 14.8 °C 1011.7 hPa SW 5.6 km/h 16.1 km/h 92% 0 mm 0 W/m2
00:39 15.6 °C 14.8 °C 1011.7 hPa WSW 1.9 km/h 14.5 km/h 92% 0 mm 0 W/m2
00:44 15.6 °C 14.8 °C 1011.7 hPa WSW 1.4 km/h 6.4 km/h 92% 0 mm 0 W/m2
00:49 15.6 °C 14.8 °C 1011.7 hPa SW 2.4 km/h 14.5 km/h 92% 0 mm 0 W/m2
00:54 15.6 °C 14.6 °C 1011.4 hPa SW 2.4 km/h 8 km/h 91.2% 0 mm 0 W/m2
00:59 15.5 °C 14.5 °C 1011.4 hPa SW 1.8 km/h 8 km/h 91% 0 mm 0 W/m2
01:04 15.5 °C 14.5 °C 1011.4 hPa WSW 5.6 km/h 12.9 km/h 91% 0 mm 0 W/m2
01:09 15.4 °C 14.4 °C 1011.1 hPa WSW 1.3 km/h 4.8 km/h 91% 0 mm 0 W/m2
01:14 15.4 °C 14.4 °C 1011.1 hPa WSW 2.1 km/h 9.7 km/h 91% 0 mm 0 W/m2
01:19 15.4 °C 14.4 °C 1011.1 hPa WSW 3.4 km/h 11.3 km/h 91% 0 mm 0 W/m2
01:24 15.4 °C 14.4 °C 1011.1 hPa WSW 9.2 km/h 14.5 km/h 91% 0 mm 0 W/m2
01:29 15.4 °C 14.4 °C 1011.1 hPa WSW 8.7 km/h 19.3 km/h 91% 0 mm 0 W/m2
01:34 15.4 °C 14.3 °C 1011.1 hPa WSW 9.7 km/h 24.1 km/h 90.2% 0 mm 0 W/m2
01:39 15.4 °C 14.3 °C 1010.7 hPa SW 9.3 km/h 17.7 km/h 90% 0 mm 0 W/m2
01:44 15.5 °C 14.2 °C 1010.7 hPa SW 10.9 km/h 20.9 km/h 89.2% 0 mm 0 W/m2
01:49 15.6 °C 14.3 °C 1010.7 hPa SSW 10.6 km/h 24.1 km/h 89% 0 mm 0 W/m2
01:54 15.6 °C 14.3 °C 1010.7 hPa SW 7.9 km/h 24.1 km/h 89% 0 mm 0 W/m2
01:59 15.6 °C 14.2 °C 1010.7 hPa WSW 15.4 km/h 27.4 km/h 88.8% 0 mm 0 W/m2
02:04 15.6 °C 14.2 °C 1010.7 hPa WSW 6.8 km/h 27.4 km/h 88.4% 0 mm 0 W/m2
02:09 15.6 °C 14.1 °C 1010.4 hPa WSW 6.6 km/h 17.7 km/h 88% 0 mm 0 W/m2
02:14 15.5 °C 14 °C 1010.4 hPa WSW 6.8 km/h 17.7 km/h 88% 0 mm 0 W/m2
02:19 15.4 °C 13.9 °C 1010.4 hPa WSW 10 km/h 17.7 km/h 88% 0 mm 0 W/m2
02:24 15.4 °C 13.9 °C 1010 hPa WSW 5.8 km/h 11.3 km/h 88% 0 mm 0 W/m2
02:29 15.4 °C 13.9 °C 1010 hPa SW 7.7 km/h 19.3 km/h 88% 0 mm 0 W/m2
02:34 15.4 °C 13.9 °C 1010 hPa SW 10.6 km/h 19.3 km/h 88% 0 mm 0 W/m2
02:39 15.4 °C 13.9 °C 1010 hPa SW 8.4 km/h 14.5 km/h 88% 0 mm 0 W/m2
02:44 15.4 °C 13.9 °C 1009.7 hPa SSW 6.6 km/h 12.9 km/h 88% 0 mm 0 W/m2
02:49 15.4 °C 13.9 °C 1009.7 hPa SW 8.9 km/h 20.9 km/h 88% 0 mm 0 W/m2
02:54 15.5 °C 14 °C 1009.7 hPa SW 13.5 km/h 22.5 km/h 88% 0 mm 0 W/m2
02:59 15.5 °C 14 °C 1009.4 hPa WSW 10.6 km/h 22.5 km/h 88% 0 mm 0 W/m2
03:04 15.5 °C 14 °C 1009.4 hPa SW 9.8 km/h 17.7 km/h 88% 0 mm 0 W/m2
03:09 15.5 °C 14 °C 1009 hPa WSW 8 km/h 16.1 km/h 88% 0 mm 0 W/m2
03:14 15.4 °C 13.9 °C 1009 hPa SW 8.7 km/h 17.7 km/h 88% 0 mm 0 W/m2
03:19 15.4 °C 13.9 °C 1009 hPa SSW 9.3 km/h 22.5 km/h 88% 0 mm 0 W/m2
03:24 15.4 °C 13.9 °C 1008.7 hPa SW 10.5 km/h 27.4 km/h 88% 0 mm 0 W/m2
03:29 15.4 °C 14 °C 1008.7 hPa SW 11.3 km/h 24.1 km/h 88.6% 0 mm 0 W/m2
03:34 15.4 °C 14.1 °C 1008.7 hPa SW 9 km/h 19.3 km/h 89% 0 mm 0 W/m2
03:39 15.3 °C 14 °C 1008.4 hPa SW 13.2 km/h 19.3 km/h 89% 0 mm 0 W/m2
03:44 15.3 °C 14 °C 1008.4 hPa SW 11.6 km/h 22.5 km/h 89% 0 mm 0 W/m2
03:49 15.3 °C 14 °C 1008.4 hPa SSW 14.2 km/h 27.4 km/h 89% 0 mm 0 W/m2
03:54 15.3 °C 14 °C 1008.4 hPa SW 8.7 km/h 25.7 km/h 89% 0 mm 0 W/m2
03:59 15.2 °C 13.8 °C 1008.4 hPa SW 14.2 km/h 29 km/h 88.6% 0 mm 0 W/m2
04:04 15.3 °C 13.8 °C 1008.4 hPa SW 15 km/h 29 km/h 88% 0 mm 0 W/m2
04:09 15.3 °C 13.8 °C 1008.4 hPa SW 15.1 km/h 24.1 km/h 88% 0 mm 0 W/m2
04:14 15.3 °C 13.8 °C 1008.4 hPa SSW 13.8 km/h 24.1 km/h 87.8% 0 mm 0 W/m2
04:19 15.4 °C 13.7 °C 1008.4 hPa SW 11.3 km/h 29 km/h 87% 0 mm 0 W/m2
04:24 15.4 °C 13.7 °C 1008.4 hPa SW 14.8 km/h 24.1 km/h 87% 0 mm 0 W/m2
04:29 15.4 °C 13.7 °C 1008.4 hPa WSW 11.6 km/h 22.5 km/h 87% 0 mm 0 W/m2
04:34 15.4 °C 13.7 °C 1008.4 hPa SW 16.1 km/h 24.1 km/h 87% 0 mm 0 W/m2
04:39 15.4 °C 13.7 °C 1008.4 hPa WSW 10.6 km/h 17.7 km/h 87% 0 mm 0 W/m2
04:44 15.4 °C 13.7 °C 1008.4 hPa SW 6.6 km/h 14.5 km/h 86.8% 0 mm 0 W/m2
04:49 15.3 °C 13.5 °C 1008.4 hPa WSW 9.3 km/h 20.9 km/h 86% 0 mm 0 W/m2
04:54 15.3 °C 13.5 °C 1008.4 hPa WSW 10.6 km/h 22.5 km/h 86.2% 0 mm 0 W/m2
04:59 15.3 °C 13.5 °C 1008 hPa SW 7.6 km/h 16.1 km/h 86% 0 mm 0 W/m2
05:04 15.2 °C 13.4 °C 1008 hPa SW 7.4 km/h 25.7 km/h 86% 0 mm 0 W/m2
05:09 15.2 °C 13.4 °C 1008.4 hPa SW 13.8 km/h 25.7 km/h 86% 0 mm 0 W/m2
05:14 15.2 °C 13.3 °C 1008.4 hPa WSW 10.6 km/h 19.3 km/h 85.2% 0 mm 0 W/m2
05:19 15.2 °C 13.2 °C 1008.4 hPa SW 10 km/h 19.3 km/h 85% 0 mm 0 W/m2
05:24 15.2 °C 13.2 °C 1008.4 hPa SW 16.7 km/h 25.7 km/h 85% 0 mm 0 W/m2
05:29 15.3 °C 13.1 °C 1008.4 hPa SW 12.6 km/h 30.6 km/h 84.2% 0 mm 0 W/m2
05:34 15.2 °C 13 °C 1008.4 hPa WSW 12.1 km/h 22.5 km/h 84% 0 mm 0 W/m2
05:39 15.2 °C 13 °C 1008.4 hPa WSW 9.3 km/h 19.3 km/h 84% 0 mm 0 W/m2
05:44 15.2 °C 12.9 °C 1008.4 hPa WSW 11.6 km/h 22.5 km/h 84% 0.25 mm 0 W/m2
05:49 15.1 °C 12.9 °C 1008.4 hPa WSW 18 km/h 25.7 km/h 84.6% 0.25 mm 0 W/m2
05:54 14.8 °C 12.8 °C 1008.4 hPa West 20 km/h 33.8 km/h 85% 0.51 mm 0 W/m2
05:59 14.7 °C 12.9 °C 1008.4 hPa West 12.2 km/h 33.8 km/h 86% 0.51 mm 0 W/m2
06:04 14.4 °C 12.6 °C 1008.7 hPa WNW 16.1 km/h 33.8 km/h 86.4% 0.51 mm 0 W/m2
06:09 14.1 °C 12.4 °C 1008.4 hPa West 10.3 km/h 29 km/h 87% 0.51 mm 0 W/m2
06:14 13.8 °C 12.3 °C 1008.4 hPa WSW 16.4 km/h 25.7 km/h 88% 0.76 mm 0 W/m2
06:19 13.8 °C 12.3 °C 1008.4 hPa WSW 15.4 km/h 20.9 km/h 88% 0.76 mm 0 W/m2
06:24 13.7 °C 12.2 °C 1008.4 hPa West 8.4 km/h 19.3 km/h 88% 0.76 mm 0 W/m2
06:29 13.7 °C 12.4 °C 1008.4 hPa West 11.3 km/h 19.3 km/h 89% 0.76 mm 0 W/m2
06:34 13.6 °C 12.3 °C 1008.4 hPa West 6.9 km/h 19.3 km/h 89% 0.76 mm 0 W/m2
06:39 13.6 °C 12.3 °C 1008.4 hPa WSW 7.2 km/h 16.1 km/h 89% 0.76 mm 0 W/m2
06:44 13.6 °C 12.3 °C 1008.4 hPa WSW 10.9 km/h 16.1 km/h 89% 0.76 mm 0 W/m2
06:49 13.4 °C 12.2 °C 1008.4 hPa West 10 km/h 20.9 km/h 89% 0.51 mm 0 W/m2
06:54 13.3 °C 11.8 °C 1008.4 hPa West 11.4 km/h 20.9 km/h 88% 0.51 mm 0 W/m2
06:59 13.3 °C 11.8 °C 1008.4 hPa WSW 9.5 km/h 22.5 km/h 88% 0.51 mm 0 W/m2
07:04 13.3 °C 11.8 °C 1008.4 hPa WSW 10 km/h 16.1 km/h 88% 0.51 mm 0 W/m2
07:09 13.2 °C 11.7 °C 1008.4 hPa WSW 9.2 km/h 19.3 km/h 88% 0.51 mm 0 W/m2
07:14 13.2 °C 11.7 °C 1008 hPa SW 7.1 km/h 16.1 km/h 88% 0.25 mm 0 W/m2
07:19 13.2 °C 11.8 °C 1007.7 hPa SW 3.1 km/h 12.9 km/h 88.8% 0.25 mm 0 W/m2
07:24 13.2 °C 11.8 °C 1008 hPa SW 3.4 km/h 12.9 km/h 89% 0.25 mm 0 W/m2
07:29 13.1 °C 11.8 °C 1008 hPa WSW 2.9 km/h 12.9 km/h 89% 0.25 mm 0 W/m2
07:34 13.1 °C 11.8 °C 1008 hPa West 4 km/h 12.9 km/h 89% 0.25 mm 0 W/m2
07:39 12.9 °C 11.7 °C 1008.4 hPa West 2.3 km/h 11.3 km/h 89% 0.25 mm 0 W/m2
07:44 12.9 °C 11.6 °C 1008.4 hPa West 1.4 km/h 9.7 km/h 89% 0.25 mm 0 W/m2
07:49 12.9 °C 11.7 °C 1008.4 hPa SW 4.3 km/h 11.3 km/h 89.6% 0.51 mm 0 W/m2
07:54 12.9 °C 11.8 °C 1008.4 hPa SW 5.8 km/h 17.7 km/h 90% 0.51 mm 7 W/m2
07:59 12.9 °C 11.8 °C 1008.4 hPa SW 2.6 km/h 14.5 km/h 90% 0.51 mm 19 W/m2
08:04 12.9 °C 11.8 °C 1008.4 hPa WSW 2.9 km/h 12.9 km/h 90% 0.25 mm 32 W/m2
08:09 12.9 °C 11.8 °C 1008.4 hPa WSW 7.2 km/h 16.1 km/h 90% 0.25 mm 44 W/m2
08:14 12.9 °C 11.8 °C 1008.4 hPa WSW 2.9 km/h 12.9 km/h 90% 0.25 mm 60 W/m2
08:19 12.9 °C 11.8 °C 1008.4 hPa WSW 5.3 km/h 11.3 km/h 90% 0.25 mm 72 W/m2
08:24 12.9 °C 11.7 °C 1008.4 hPa WSW 6.9 km/h 11.3 km/h 89.4% 0.25 mm 56 W/m2
08:29 13 °C 11.7 °C 1008.4 hPa WSW 5.8 km/h 14.5 km/h 89% 0.25 mm 56 W/m2
08:34 13.1 °C 11.8 °C 1008.4 hPa WSW 2.4 km/h 17.7 km/h 89% 0.25 mm 35 W/m2
08:39 13.1 °C 11.8 °C 1008.4 hPa WSW 1.6 km/h 11.3 km/h 89% 0.25 mm 30 W/m2
08:44 13 °C 11.7 °C 1008.4 hPa WSW 7.6 km/h 14.5 km/h 89% 0.25 mm 39 W/m2
08:49 12.9 °C 11.6 °C 1008.4 hPa SW 8.4 km/h 12.9 km/h 89% 0.25 mm 70 W/m2
08:54 12.9 °C 11.6 °C 1008.4 hPa WSW 5.8 km/h 14.5 km/h 89% 0 mm 98 W/m2
08:59 12.9 °C 11.7 °C 1008.4 hPa WSW 5.1 km/h 12.9 km/h 89% 0 mm 144 W/m2
09:04 13.1 °C 11.7 °C 1008.7 hPa SW 1.6 km/h 14.5 km/h 88.8% 0 mm 123 W/m2
09:09 13.1 °C 11.8 °C 1008.7 hPa WSW 2.6 km/h 12.9 km/h 89% 0 mm 123 W/m2
09:14 13.2 °C 11.8 °C 1008.7 hPa WSW 4 km/h 16.1 km/h 89% 0 mm 123 W/m2
09:19 13.2 °C 11.8 °C 1008.7 hPa SW 8 km/h 19.3 km/h 88.6% 0 mm 104 W/m2
09:24 13.2 °C 11.7 °C 1009 hPa WSW 4.8 km/h 11.3 km/h 88% 0 mm 74 W/m2
09:29 13.2 °C 11.7 °C 1009 hPa SW 3.2 km/h 16.1 km/h 88% 0 mm 69 W/m2
09:34 13.3 °C 11.8 °C 1009 hPa WSW 2.3 km/h 12.9 km/h 88% 0 mm 62 W/m2
09:39 13.3 °C 11.8 °C 1009 hPa West 10.1 km/h 22.5 km/h 88% 0 mm 53 W/m2
09:44 13.4 °C 11.9 °C 1009 hPa WSW 13.8 km/h 19.3 km/h 88% 0 mm 93 W/m2
09:49 13.4 °C 11.9 °C 1009 hPa SW 3.2 km/h 17.7 km/h 88% 0 mm 90 W/m2
09:54 13.4 °C 11.9 °C 1009 hPa WNW 4.8 km/h 14.5 km/h 88% 0 mm 44 W/m2
09:59 13.3 °C 11.8 °C 1009 hPa WNW 3.9 km/h 14.5 km/h 88% 0 mm 39 W/m2
10:04 13.2 °C 11.7 °C 1009.4 hPa WNW 4 km/h 11.3 km/h 88% 0 mm 49 W/m2
10:09 12.9 °C 11.6 °C 1009.4 hPa Calm   8 km/h 88.8% 0 mm 62 W/m2
10:14 12.9 °C 11.6 °C 1009 hPa WNW 0.3 km/h 16.1 km/h 89% 0 mm 121 W/m2
10:19 12.9 °C 11.8 °C 1009 hPa WSW 4.5 km/h 14.5 km/h 90% 0 mm 130 W/m2
10:24 13.1 °C 11.9 °C 1009.4 hPa WSW 6.8 km/h 20.9 km/h 89.6% 0 mm 149 W/m2
10:29 13.3 °C 12 °C 1009.4 hPa WSW 8.9 km/h 25.7 km/h 89.2% 0 mm 149 W/m2
10:34 13.3 °C 11.9 °C 1009.4 hPa West 4 km/h 19.3 km/h 88.4% 0 mm 67 W/m2
10:39 13.2 °C 11.8 °C 1009 hPa West 5.1 km/h 16.1 km/h 88.2% 0 mm 86 W/m2
10:44 13.2 °C 11.9 °C 1009.4 hPa WNW 6.8 km/h 16.1 km/h 89% 0 mm 67 W/m2
10:49 12.9 °C 11.7 °C 1009.4 hPa WNW 6.8 km/h 19.3 km/h 89% 0 mm 72 W/m2
10:54 12.8 °C 11.7 °C 1009.4 hPa WNW 5.5 km/h 11.3 km/h 89.6% 0 mm 223 W/m2
10:59 12.9 °C 11.8 °C 1009.4 hPa WNW 1.3 km/h 9.7 km/h 90% 0 mm 232 W/m2
11:04 12.9 °C 11.8 °C 1009.4 hPa Calm   1.6 km/h 90% 0.25 mm 137 W/m2
11:09 13 °C 12.1 °C 1009.4 hPa Calm   3.2 km/h 90.8% 0.25 mm 172 W/m2
11:14 13.1 °C 12.2 °C 1009.4 hPa WNW 1 km/h 8 km/h 91% 0.25 mm 134 W/m2
11:19 13.1 °C 12.2 °C 1009.4 hPa WNW 1 km/h 6.4 km/h 91% 0.51 mm 156 W/m2
11:24 13.2 °C 12.3 °C 1009.4 hPa WNW 3.4 km/h 12.9 km/h 91% 0.76 mm 70 W/m2
11:29 13.1 °C 12.2 °C 1009.7 hPa WNW 6.1 km/h 14.5 km/h 91% 1.27 mm 63 W/m2
11:34 13.1 °C 12.2 °C 1010 hPa WNW 2.9 km/h 14.5 km/h 91% 1.78 mm 121 W/m2
11:39 12.8 °C 11.9 °C 1010 hPa West 6.9 km/h 19.3 km/h 91% 1.78 mm 236 W/m2
11:44 12.6 °C 11.7 °C 1010 hPa WNW 8 km/h 17.7 km/h 91% 2.03 mm 288 W/m2
11:49 12.3 °C 11.4 °C 1010 hPa West 8.5 km/h 19.3 km/h 91% 2.03 mm 334 W/m2
11:54 12.3 °C 11.4 °C 1010 hPa West 5.3 km/h 16.1 km/h 91% 2.03 mm 262 W/m2
11:59 12.4 °C 11.5 °C 1010 hPa West 8 km/h 14.5 km/h 91% 2.03 mm 199 W/m2
12:04 12.4 °C 11.5 °C 1010 hPa West 5.8 km/h 14.5 km/h 91% 1.78 mm 153 W/m2
12:09 12.4 °C 11.6 °C 1010 hPa WNW 4.2 km/h 14.5 km/h 91% 1.78 mm 308 W/m2
12:14 12.7 °C 11.8 °C 1010 hPa West 6.6 km/h 16.1 km/h 91% 1.78 mm 582 W/m2
12:19 13 °C 12.1 °C 1010 hPa West 8.4 km/h 20.9 km/h 91% 1.78 mm 701 W/m2
12:24 13.2 °C 12 °C 1010 hPa West 8 km/h 17.7 km/h 89.8% 1.52 mm 341 W/m2
12:29 13.3 °C 12.1 °C 1010 hPa West 5.5 km/h 14.5 km/h 89.2% 1.27 mm 599 W/m2
12:34 13.4 °C 12 °C 1010 hPa WNW 8.9 km/h 17.7 km/h 88.3% 0.51 mm 578 W/m2
12:39 13.6 °C 11.7 °C 1010 hPa West 14.5 km/h 22.5 km/h 85.6% 0.25 mm 710 W/m2
12:44 13.9 °C 11.4 °C 1010 hPa WNW 14.2 km/h 24.1 km/h 82.2% 0.25 mm 654 W/m2
12:49 14.1 °C 10.8 °C 1010 hPa WNW 11.3 km/h 24.1 km/h 78.2% 0 mm 686 W/m2
12:54 14.4 °C 10.9 °C 1010 hPa West 10.9 km/h 24.1 km/h 76.8% 0 mm 696 W/m2
12:59 14.7 °C 10.8 °C 1010 hPa WNW 13.5 km/h 24.1 km/h 75.2% 0 mm 670 W/m2
13:04 14.7 °C 10.8 °C 1010.4 hPa West 11.4 km/h 24.1 km/h 74.8% 0 mm 659 W/m2
13:09 14.8 °C 10.8 °C 1010.4 hPa WNW 15.4 km/h 25.7 km/h 74.6% 0 mm 652 W/m2
13:14 14.6 °C 10.1 °C 1010.4 hPa WNW 11.3 km/h 29 km/h 72% 0 mm 640 W/m2
13:19 14.4 °C 9.8 °C 1010.4 hPa WNW 20 km/h 29 km/h 71.4% 0 mm 580 W/m2
13:24 14.7 °C 9.9 °C 1010.4 hPa WNW 11.9 km/h 30.6 km/h 71% 0 mm 571 W/m2
13:29 14.8 °C 9.9 °C 1010.4 hPa WNW 13.5 km/h 32.2 km/h 70.4% 0 mm 575 W/m2
13:34 14.7 °C 9.2 °C 1010.4 hPa WNW 16.4 km/h 25.7 km/h 67.4% 0 mm 563 W/m2
13:39 14.9 °C 9.4 °C 1010.4 hPa West 15.4 km/h 22.5 km/h 67.8% 0 mm 573 W/m2
13:44 14.9 °C 9.2 °C 1010.4 hPa West 18.7 km/h 30.6 km/h 66% 0 mm 571 W/m2
13:49 14.8 °C 9.1 °C 1010.7 hPa NW 13.5 km/h 27.4 km/h 66.6% 0 mm 603 W/m2
13:54 14.8 °C 9.1 °C 1010.7 hPa NW 17.9 km/h 30.6 km/h 66.8% 0 mm 670 W/m2
13:59 14.8 °C 9.2 °C 1010.7 hPa WNW 18 km/h 25.7 km/h 67.2% 0 mm 613 W/m2
14:04 14.3 °C 8.7 °C 1010.7 hPa West 13 km/h 25.7 km/h 67% 0 mm 130 W/m2
14:09 14.1 °C 8.8 °C 1010.7 hPa West 12.6 km/h 27.4 km/h 68% 0 mm 107 W/m2
14:14 14.5 °C 9.4 °C 1010.7 hPa WNW 9.3 km/h 25.7 km/h 69.2% 0 mm 656 W/m2
14:19 15.1 °C 9.6 °C 1010.7 hPa WNW 16.1 km/h 25.7 km/h 67.4% 0 mm 598 W/m2
14:24 15 °C 8.7 °C 1010.7 hPa West 19 km/h 33.8 km/h 64% 0 mm 564 W/m2
14:29 14.8 °C 8.5 °C 1010.7 hPa WNW 12.1 km/h 25.7 km/h 63.8% 0 mm 559 W/m2
14:34 14.9 °C 8.7 °C 1011.1 hPa WNW 14.8 km/h 35.4 km/h 64.2% 0 mm 564 W/m2
14:39 14.9 °C 8.5 °C 1010.7 hPa WNW 13.2 km/h 35.4 km/h 63.6% 0 mm 596 W/m2
14:44 14.8 °C 8.7 °C 1011.1 hPa WNW 13.4 km/h 25.7 km/h 64.4% 0 mm 628 W/m2
14:49 15.1 °C 8.9 °C 1011.1 hPa WNW 14.3 km/h 29 km/h 64.4% 0 mm 608 W/m2
14:54 15.3 °C 8.9 °C 1011.1 hPa WNW 13.4 km/h 22.5 km/h 63.6% 0 mm 577 W/m2
14:59 15.2 °C 8.7 °C 1011.1 hPa West 14.8 km/h 30.6 km/h 63% 0 mm 517 W/m2
15:04 14.9 °C 8.6 °C 1011.1 hPa West 19.2 km/h 30.6 km/h 63.8% 0 mm 501 W/m2
15:09 14.6 °C 8.2 °C 1011.1 hPa WNW 13.2 km/h 29 km/h 63.8% 0 mm 79 W/m2
15:14 14.1 °C 8.2 °C 1011.1 hPa WNW 15.1 km/h 29 km/h 65.6% 0 mm 98 W/m2
15:19 14.1 °C 8.4 °C 1011.1 hPa NW 12.6 km/h 20.9 km/h 66.8% 0 mm 211 W/m2
15:24 14.1 °C 8.4 °C 1011.1 hPa WNW 15.8 km/h 32.2 km/h 66.8% 0 mm 88 W/m2
15:29 14.4 °C 8.6 °C 1011.1 hPa WNW 12.9 km/h 32.2 km/h 66% 0 mm 489 W/m2
15:34 14.8 °C 8.5 °C 1011.1 hPa WNW 14.2 km/h 29 km/h 64% 0 mm 462 W/m2
15:39 14.8 °C 8.4 °C 1011.4 hPa WNW 14.5 km/h 30.6 km/h 63.4% 0 mm 439 W/m2
15:44 14.8 °C 8.4 °C 1011.4 hPa WNW 15.1 km/h 27.4 km/h 63.4% 0 mm 427 W/m2
15:49 14.7 °C 8.4 °C 1011.4 hPa WNW 20.6 km/h 32.2 km/h 63.8% 0 mm 422 W/m2
15:54 14.5 °C 8.2 °C 1011.4 hPa WNW 13.8 km/h 32.2 km/h 64% 0 mm 316 W/m2
15:59 14.2 °C 8 °C 1011.4 hPa WNW 15.8 km/h 29 km/h 64.2% 0 mm 424 W/m2
16:04 14.3 °C 7.8 °C 1011.1 hPa WNW 11.9 km/h 25.7 km/h 63.2% 0 mm 390 W/m2
16:09 14.5 °C 8.2 °C 1011.1 hPa West 11.6 km/h 27.4 km/h 63.8% 0 mm 369 W/m2
16:14 14.8 °C 8.3 °C 1011.4 hPa WNW 12.7 km/h 24.1 km/h 63.2% 0 mm 359 W/m2
16:19 14.7 °C 8 °C 1011.1 hPa WNW 13.8 km/h 29 km/h 62.2% 0 mm 343 W/m2
16:24 14.7 °C 8.1 °C 1011.1 hPa WNW 9.3 km/h 22.5 km/h 62.4% 0 mm 332 W/m2
16:29 14.8 °C 8.3 °C 1011.4 hPa West 12.6 km/h 24.1 km/h 62.8% 0 mm 322 W/m2
16:34 14.8 °C 8.3 °C 1011.4 hPa WNW 15.3 km/h 25.7 km/h 62.8% 0 mm 311 W/m2
16:39 14.9 °C 8.4 °C 1011.4 hPa WNW 7.6 km/h 16.1 km/h 63.3% 0 mm 301 W/m2
16:44 15.1 °C 8.6 °C 1011.4 hPa West 10.3 km/h 16.1 km/h 63% 0 mm 299 W/m2
16:49 14.8 °C 8.4 °C 1011.7 hPa West 12.6 km/h 25.7 km/h 63.4% 0 mm 276 W/m2
16:54 14.6 °C 8.2 °C 1011.7 hPa WNW 11.9 km/h 25.7 km/h 63.4% 0 mm 271 W/m2
16:59 14.3 °C 8.1 °C 1011.7 hPa West 15.8 km/h 27.4 km/h 64% 0 mm 230 W/m2
17:04 14.2 °C 8.1 °C 1011.7 hPa West 14.5 km/h 25.7 km/h 64.6% 0 mm 232 W/m2
17:09 14.2 °C 8.4 °C 1011.7 hPa West 12.6 km/h 24.1 km/h 66% 0 mm 213 W/m2
17:14 14.3 °C 8.7 °C 1011.7 hPa WNW 9 km/h 19.3 km/h 67% 0 mm 202 W/m2
17:19 14.4 °C 8.7 °C 1011.7 hPa WNW 10 km/h 19.3 km/h 66.8% 0 mm 188 W/m2
17:24 14.3 °C 8.5 °C 1011.7 hPa WNW 11.6 km/h 24.1 km/h 66% 0 mm 162 W/m2
17:29 14.1 °C 8.3 °C 1011.7 hPa West 12.6 km/h 20.9 km/h 66% 0 mm 146 W/m2
17:34 14.1 °C 8.3 °C 1011.7 hPa WNW 11.9 km/h 20.9 km/h 66.4% 0 mm 134 W/m2
17:39 13.9 °C 8 °C 1011.7 hPa WNW 14.2 km/h 20.9 km/h 65.6% 0 mm 114 W/m2
17:44 13.8 °C 8.1 °C 1011.7 hPa West 7.9 km/h 16.1 km/h 66% 0 mm 93 W/m2
17:49 13.7 °C 8.3 °C 1011.7 hPa WNW 10 km/h 19.3 km/h 67.2% 0 mm 77 W/m2
17:54 13.6 °C 8.3 °C 1011.7 hPa WNW 6.6 km/h 16.1 km/h 68.2% 0 mm 58 W/m2
17:59 13.4 °C 8.3 °C 1011.7 hPa WNW 5.8 km/h 11.3 km/h 69% 0 mm 42 W/m2
18:04 13.3 °C 8.3 °C 1011.7 hPa WNW 4.7 km/h 14.5 km/h 69.6% 0 mm 37 W/m2
18:09 13.1 °C 8.3 °C 1011.7 hPa WNW 5.3 km/h 11.3 km/h 70.6% 0 mm 39 W/m2
18:14 13 °C 8.3 °C 1011.7 hPa WNW 4.5 km/h 8 km/h 71% 0 mm 40 W/m2
18:19 12.9 °C 8.4 °C 1011.7 hPa WNW 3.2 km/h 9.7 km/h 71.8% 0 mm 26 W/m2
18:24 12.8 °C 8.5 °C 1011.7 hPa WNW 2.1 km/h 6.4 km/h 72.4% 0 mm 21 W/m2
18:29 12.7 °C 8.5 °C 1011.7 hPa WNW 3.2 km/h 8 km/h 73% 0 mm 18 W/m2
18:34 12.5 °C 8.3 °C 1011.7 hPa WNW 4.5 km/h 9.7 km/h 73% 0 mm 12 W/m2
18:39 12.3 °C 8.2 °C 1011.7 hPa WNW 4.8 km/h 9.7 km/h 73% 0 mm 9 W/m2
18:44 12.3 °C 8.1 °C 1012.1 hPa WNW 4.7 km/h 8 km/h 73% 0 mm 7 W/m2
18:49 12.2 °C 8 °C 1012.1 hPa WNW 4.7 km/h 6.4 km/h 73.4% 0 mm 0 W/m2
18:54 12.1 °C 8.1 °C 1012.1 hPa WNW 1 km/h 6.4 km/h 74% 0 mm 0 W/m2
18:59 11.9 °C 7.9 °C 1012.1 hPa WNW 0.6 km/h 4.8 km/h 74% 0 mm 0 W/m2
19:04 11.9 °C 7.9 °C 1012.4 hPa Calm     74% 0 mm 0 W/m2
19:09 11.8 °C 7.9 °C 1012.1 hPa WNW 0.3 km/h 4.8 km/h 74.6% 0 mm 0 W/m2
19:14 11.8 °C 8 °C 1012.4 hPa Calm   3.2 km/h 75% 0 mm 0 W/m2
19:19 11.7 °C 7.9 °C 1012.4 hPa Calm   1.6 km/h 75% 0 mm 0 W/m2
19:24 11.7 °C 8.1 °C 1012.4 hPa Calm     76% 0 mm 0 W/m2
19:29 11.6 °C 7.9 °C 1012.4 hPa Calm     76% 0 mm 0 W/m2
19:34 11.4 °C 8 °C 1012.4 hPa Calm     77% 0 mm 0 W/m2
19:39 11.4 °C 8 °C 1012.4 hPa Calm     77% 0 mm 0 W/m2
19:44 11.4 °C 8.1 °C 1012.4 hPa Calm     77.6% 0 mm 0 W/m2
19:49 11.3 °C 8.1 °C 1012.4 hPa Calm     78% 0 mm 0 W/m2
19:54 11.1 °C 7.8 °C 1012.4 hPa Calm     78% 0 mm 0 W/m2
19:59 10.9 °C 7.9 °C 1012.4 hPa Calm     79% 0 mm 0 W/m2
20:04 10.8 °C 7.8 °C 1012.4 hPa Calm     79% 0 mm 0 W/m2
20:09 10.7 °C 7.8 °C 1012.4 hPa WNW 0.6 km/h 4.8 km/h 79.6% 0 mm 0 W/m2
20:14 10.6 °C 7.8 °C 1012.4 hPa Calm     80% 0 mm 0 W/m2
20:19 10.4 °C 7.8 °C 1012.4 hPa Calm     81% 0 mm 0 W/m2
20:24 10.4 °C 7.9 °C 1012.4 hPa Calm     81.8% 0 mm 0 W/m2
20:29 10.6 °C 8.1 °C 1012.8 hPa Calm     82% 0 mm 0 W/m2
20:34 10.6 °C 8.1 °C 1012.4 hPa Calm     82% 0 mm 0 W/m2
20:39 10.5 °C 8 °C 1012.4 hPa Calm     82% 0 mm 0 W/m2
20:44 10.4 °C 8.2 °C 1012.4 hPa Calm     83% 0 mm 0 W/m2
20:49 10.3 °C 8.1 °C 1012.8 hPa Calm     83% 0 mm 0 W/m2
20:54 10.2 °C 7.8 °C 1012.8 hPa Calm     83% 0 mm 0 W/m2
20:59 10.1 °C 7.8 °C 1012.8 hPa Calm     83% 0 mm 0 W/m2
21:04 10.1 °C 7.8 °C 1012.8 hPa WNW 0.6 km/h 3.2 km/h 83% 0 mm 0 W/m2
21:09 10 °C 7.8 °C 1012.8 hPa Calm     83.8% 0 mm 0 W/m2
21:14 9.7 °C 7.4 °C 1012.8 hPa Calm     83% 0 mm 0 W/m2
21:18 9.6 °C 7.4 °C 1012.8 hPa WNW 1.1 km/h 4.8 km/h 83.5% 0 mm 0 W/m2
21:24 9.4 °C 7.2 °C 1012.8 hPa WNW 4 km/h 9.7 km/h 83.4% 0 mm 0 W/m2
21:29 9.4 °C 7.1 °C 1012.8 hPa WNW 4.5 km/h 8 km/h 83% 0 mm 0 W/m2
21:34 9.4 °C 7.2 °C 1012.8 hPa WNW 1.3 km/h 8 km/h 83% 0 mm 0 W/m2
21:39 9.5 °C 7.2 °C 1012.8 hPa Calm     83% 0 mm 0 W/m2
21:44 9.5 °C 7.1 °C 1012.8 hPa Calm     82.4% 0 mm 0 W/m2
21:49 9.4 °C 7.1 °C 1012.4 hPa WNW 2.3 km/h 6.4 km/h 82.4% 0 mm 0 W/m2
21:54 9.3 °C 7.1 °C 1012.4 hPa WNW 2.7 km/h 6.4 km/h 82.8% 0 mm 0 W/m2
21:59 9.2 °C 7 °C 1012.4 hPa WNW 4 km/h 6.4 km/h 83% 0 mm 0 W/m2
22:04 9.2 °C 7 °C 1012.4 hPa WNW 4 km/h 8 km/h 83% 0 mm 0 W/m2
22:09 9.3 °C 7.1 °C 1012.4 hPa WNW 1.4 km/h 4.8 km/h 83% 0 mm 0 W/m2
22:14 9.3 °C 7 °C 1012.4 hPa WNW 0.3 km/h 6.4 km/h 82.4% 0 mm 0 W/m2
22:19 9.3 °C 6.9 °C 1012.4 hPa Calm   6.4 km/h 82% 0 mm 0 W/m2
22:24 9.3 °C 6.9 °C 1012.4 hPa WNW 1.9 km/h 4.8 km/h 82% 0 mm 0 W/m2
22:29 9.2 °C 6.8 °C 1012.4 hPa WNW 5.1 km/h 8 km/h 82% 0 mm 0 W/m2
22:34 9.2 °C 6.8 °C 1012.4 hPa WNW 4 km/h 6.4 km/h 82% 0 mm 0 W/m2
22:39 9.3 °C 6.9 °C 1012.4 hPa Calm   6.4 km/h 82% 0 mm 0 W/m2
22:44 9.2 °C 6.8 °C 1012.4 hPa WNW 0.3 km/h 4.8 km/h 82% 0 mm 0 W/m2
22:49 9.1 °C 6.7 °C 1012.4 hPa Calm   4.8 km/h 82% 0 mm 0 W/m2
22:54 9 °C 6.7 °C 1012.1 hPa WNW 0.6 km/h 4.8 km/h 82.2% 0 mm 0 W/m2
22:59 8.8 °C 6.7 °C 1012.1 hPa WNW 1.6 km/h 4.8 km/h 83% 0 mm 0 W/m2
23:04 8.8 °C 6.6 °C 1012.1 hPa WNW 1.9 km/h 4.8 km/h 83% 0 mm 0 W/m2
23:09 8.7 °C 6.6 °C 1012.1 hPa WNW 0.8 km/h 4.8 km/h 83.2% 0 mm 0 W/m2
23:14 8.7 °C 6.6 °C 1012.1 hPa WNW 0.6 km/h 4.8 km/h 84% 0 mm 0 W/m2
23:19 8.6 °C 6.5 °C 1012.1 hPa Calm     84% 0 mm 0 W/m2
23:24 8.6 °C 6.4 °C 1012.1 hPa WNW 0.6 km/h 3.2 km/h 84% 0 mm 0 W/m2
23:29 8.6 °C 6.4 °C 1012.1 hPa WNW 1 km/h 4.8 km/h 84% 0 mm 0 W/m2
23:34 8.5 °C 6.4 °C 1012.1 hPa WNW 4 km/h 6.4 km/h 84% 0 mm 0 W/m2
23:39 8.4 °C 6.4 °C 1012.1 hPa WNW 1.9 km/h 8 km/h 84.8% 0 mm 0 W/m2
23:44 8.4 °C 6.5 °C 1011.7 hPa Calm   1.6 km/h 85% 0 mm 0 W/m2
23:49 8.4 °C 6.5 °C 1011.7 hPa Calm     85% 0 mm 0 W/m2
23:54 8.4 °C 6.5 °C 1011.7 hPa WNW 0.6 km/h 4.8 km/h 85% 0 mm 0 W/m2
23:59 8.4 °C 6.5 °C 1011.7 hPa Calm   4.8 km/h 85% 0 mm 0 W/m2
Bath Spa Weather
Compliments of Weather Underground - 2 mb